METAR Data
IDs: Format: Raw Decoded Include TAF

Data at: 0617 UTC 07 Dec 2022

KRDM 070556Z 00000KT 10SM CLR M10/M12 A3011 RMK AO2 SLP226 I1000 I6001 T11001122 10039 21106 51011
KRDM 070456Z 00000KT 10SM CLR M08/M11 A3010 RMK AO2 SLP226 T10831106
KRDM 070356Z 00000KT 10SM CLR M07/M09 A3009 RMK AO2 SLP225 I1001 T10671089
KRDM 070256Z 00000KT 10SM CLR M07/M08 A3007 RMK AO2 SLP224 I1000 I3000 T10671083 51007
KRDM 070156Z 00000KT 10SM CLR M06/M07 A3006 RMK AO2 SLP221 T10561072
KRDM 070056Z 06003KT 10SM CLR M03/M06 A3006 RMK AO2 SLP215 T10281056
KRDM 062356Z 10004KT 10SM CLR 04/M03 A3005 RMK AO2 SLP202 T00441033 10056 20006 55001
KRDM 062256Z 13004KT 10SM CLR 06/M03 A3005 RMK AO2 SLP200 T00561028
KRDM 062156Z 18007KT 10SM CLR 05/M03 A3005 RMK AO2 SLP201 T00501028
KRDM 062056Z 18007KT 10SM CLR 04/M03 A3005 RMK AO2 SLP199 T00441028 58002
KRDM 062034Z 20007KT 10SM CLR 04/M03 A3006 RMK AO2 T00441028
KRDM 061956Z 15008KT 10SM CLR 04/M03 A3006 RMK AO2 SLP201 T00391028
KRDM 061856Z 16007KT 10SM CLR 03/M03 A3006 RMK AO2 SLP204 T00281028
KRDM 061756Z 15008KT 10SM CLR 01/M03 A3006 RMK AO2 SLP204 I6000 T00061033 10006 21122 51011
KRDM 061656Z 12003KT 10SM CLR M02/M05 A3005 RMK AO2 SLP207 I1000 T10171050
KRDM 061556Z 10005KT 10SM CLR M06/M09 A3005 RMK AO2 SLP209 I1000 T10561094
KRDM 061456Z 13005KT 10SM CLR M11/M14 A3002 RMK AO2 SLP207 I1000 I3000 T11061144 53007
KRDM 061356Z 04004KT 10SM CLR M12/M16 A3001 RMK AO2 SLP202 I1000 T11171161
KRDM 061256Z AUTO 00000KT 7SM CLR M11/M14 A3001 RMK AO2 SLP194 T11061139
KRDM 061230Z AUTO 00000KT 10SM SCT001 M11/M14 A3000 RMK AO2 T11111144
KRDM 061156Z AUTO 00000KT 9SM BKN001 M11/M13 A3000 RMK AO2 SLP191 I1000 I6000 T11061133 11050 21117 50004
KRDM 061149Z AUTO 00000KT 10SM BKN001 M10/M13 A3000 RMK AO2 I1000 T11001133
KRDM 061126Z AUTO 15003KT 10SM FEW002 M10/M13 A3000 RMK AO2 T11001128
KRDM 061056Z AUTO 13003KT 8SM CLR M11/M13 A3001 RMK AO2 SLP188 I1000 T11111133
KRDM 060956Z AUTO 09003KT 10SM CLR M11/M13 A3000 RMK AO2 SLP184 I1000 T11061128
KRDM 060856Z AUTO 17003KT 8SM CLR M07/M09 A2999 RMK AO2 SLP179 I1000 I3000 T10721094 50005
KRDM 060756Z AUTO 00000KT 9SM BKN049 M07/M09 A3000 RMK AO2 SLP183 I1000 T10721094 400441156
KRDM 060656Z AUTO 00000KT 10SM OVC050 M07/M09 A2999 RMK AO2 SLP184 I1000 T10721089
KRDM 060556Z AUTO 00000KT 6SM BR BKN050 M07/M09 A2997 RMK AO2 SLP179 I1000 I6001 T10671089 10006 21083 51012
KRDM 060456Z 00000KT 10SM BKN050 M08/M09 A2996 RMK AO2 SLP183 T10781094
KRDM 060356Z 00000KT 7SM SCT050 M07/M09 A2995 RMK AO2 SLP185 I1001 T10721089
KRDM 060317Z 00000KT 7SM FEW050 M07/M08 A2994 RMK AO2 I1000 T10671083
KRDM 060310Z 00000KT 1 3/4SM BR CLR M07/M09 A2994 RMK AO2 I1000 T10671089
KRDM 060256Z 00000KT 5SM BR CLR M06/M08 A2993 RMK AO2 SLP178 T10611078 53006
KRDM 060156Z 00000KT 10SM OVC055 M04/M06 A2993 RMK AO2 SLP172 T10391056
KRDM 060056Z 00000KT 10SM OVC055 M01/M04 A2992 RMK AO2 SLP163 T10111039
KRDM 052356Z 33003KT 10SM FEW055 01/M03 A2992 RMK AO2 SLP162 T00061033 10044 21017 53004
KRDM 052256Z 00000KT 10SM CLR 04/M02 A2990 RMK AO2 SLP153 T00391022
KRDM 052156Z 31004KT 10SM CLR 03/M02 A2990 RMK AO2 SLP156 T00331022
KRDM 052056Z 00000KT 10SM CLR 02/M03 A2990 RMK AO2 SLP157 T00221033 58013
KRDM 051956Z 00000KT 10SM CLR 02/M04 A2992 RMK AO2 SLP166 T00171039
KRDM 051856Z 00000KT 10SM CLR M01/M04 A2994 RMK AO2 SLP176 T10111044